Карточка аэропорта UNTT

Внимание!
Информация на этой странице в стадии наполнения.
Если вы не увидели какой-то информации, или заметили неточность - пожалуйста сообщите нам!
Спасибо!
Команда RU-STAFF
Название аэропортаБогашево
Название аэропорта (англ.)Bogashevo
Превышение597 ft. (182 m.)
Координаты56°22.2', 85°12.6'
Высота перехода700m
Эшелон переходаQFE>=743mm:FL040; QFE<743mm:FL050
Коды ответчика5230-5247
Зона ОрВДНовосибирск РПИ (UNNT)
Данные METARUNTT 070600Z 23006MPS 6000 -SHSN SCT022CB BKN038 M16/M20 Q1035 R21/490239 NOSIG RMK QFE761
Проноз погоды (TAF)
NOTAMshow/hide NOTAM
AWOS   TABLE

Информация о ВПП

ВПП Длина ВПП (м.) Покрытие Курс ВПП Частота ILS
032500Асфальтобетон25 
212500Асфальтобетон205110.3

Диспетчерские позиции




Спутниковое изображение